sensor_id;sensor_type;location;lat;lon;timestamp;P1;durP1;ratioP1;P2;durP2;ratioP2
20814;SDS011;10568;48.176;16.316;2022-12-05T00:02:11;10.37;;;5.77;;
20814;SDS011;10568;48.176;16.316;2022-12-05T00:04:37;12.83;;;5.73;;
20814;SDS011;10568;48.176;16.316;2022-12-05T00:07:03;10.83;;;5.70;;
20814;SDS011;10568;48.176;16.316;2022-12-05T00:09:29;10.20;;;6.17;;
20814;SDS011;10568;48.176;16.316;2022-12-05T00:11:54;12.90;;;6.20;;
20814;SDS011;10568;48.176;16.316;2022-12-05T00:14:20;10.63;;;5.93;;
20814;SDS011;10568;48.176;16.316;2022-12-05T00:16:46;9.80;;;5.70;;
20814;SDS011;10568;48.176;16.316;2022-12-05T00:19:13;10.87;;;5.80;;
20814;SDS011;10568;48.176;16.316;2022-12-05T00:21:39;11.23;;;5.87;;
20814;SDS011;10568;48.176;16.316;2022-12-05T00:24:06;13.17;;;6.53;;
20814;SDS011;10568;48.176;16.316;2022-12-05T00:26:34;13.57;;;6.13;;
20814;SDS011;10568;48.176;16.316;2022-12-05T00:29:00;12.57;;;6.47;;
20814;SDS011;10568;48.176;16.316;2022-12-05T00:31:26;10.30;;;5.90;;
20814;SDS011;10568;48.176;16.316;2022-12-05T00:33:52;11.10;;;5.90;;
20814;SDS011;10568;48.176;16.316;2022-12-05T00:36:20;10.37;;;5.87;;
20814;SDS011;10568;48.176;16.316;2022-12-05T00:38:48;10.93;;;6.10;;
20814;SDS011;10568;48.176;16.316;2022-12-05T00:41:15;12.93;;;5.97;;
20814;SDS011;10568;48.176;16.316;2022-12-05T00:43:43;12.10;;;6.00;;
20814;SDS011;10568;48.176;16.316;2022-12-05T00:46:10;14.17;;;6.20;;
20814;SDS011;10568;48.176;16.316;2022-12-05T00:48:39;14.30;;;6.13;;
20814;SDS011;10568;48.176;16.316;2022-12-05T00:51:06;10.63;;;6.07;;
20814;SDS011;10568;48.176;16.316;2022-12-05T00:53:35;10.90;;;6.17;;
20814;SDS011;10568;48.176;16.316;2022-12-05T00:56:05;12.77;;;5.93;;
20814;SDS011;10568;48.176;16.316;2022-12-05T00:58:32;11.67;;;5.57;;
20814;SDS011;10568;48.176;16.316;2022-12-05T01:01:12;10.67;;;6.30;;
20814;SDS011;10568;48.176;16.316;2022-12-05T01:03:38;14.00;;;6.40;;
20814;SDS011;10568;48.176;16.316;2022-12-05T01:06:05;9.83;;;5.67;;
20814;SDS011;10568;48.176;16.316;2022-12-05T01:08:31;12.00;;;5.80;;
20814;SDS011;10568;48.176;16.316;2022-12-05T01:10:58;10.60;;;5.33;;
20814;SDS011;10568;48.176;16.316;2022-12-05T01:13:24;12.27;;;5.57;;
20814;SDS011;10568;48.176;16.316;2022-12-05T01:15:51;8.97;;;5.47;;
20814;SDS011;10568;48.176;16.316;2022-12-05T01:18:18;13.53;;;5.17;;
20814;SDS011;10568;48.176;16.316;2022-12-05T01:20:46;12.83;;;5.47;;
20814;SDS011;10568;48.176;16.316;2022-12-05T01:23:12;9.57;;;4.97;;
20814;SDS011;10568;48.176;16.316;2022-12-05T01:25:39;10.17;;;4.63;;
20814;SDS011;10568;48.176;16.316;2022-12-05T01:28:06;8.77;;;4.87;;
20814;SDS011;10568;48.176;16.316;2022-12-05T01:30:32;9.53;;;4.83;;
20814;SDS011;10568;48.176;16.316;2022-12-05T01:33:02;8.77;;;4.60;;
20814;SDS011;10568;48.176;16.316;2022-12-05T01:35:30;11.03;;;4.57;;
20814;SDS011;10568;48.176;16.316;2022-12-05T01:37:56;9.53;;;4.73;;
20814;SDS011;10568;48.176;16.316;2022-12-05T01:40:22;11.17;;;5.40;;
20814;SDS011;10568;48.176;16.316;2022-12-05T01:42:47;8.53;;;4.57;;
20814;SDS011;10568;48.176;16.316;2022-12-05T01:45:15;9.30;;;5.17;;
20814;SDS011;10568;48.176;16.316;2022-12-05T01:47:42;6.47;;;4.13;;
20814;SDS011;10568;48.176;16.316;2022-12-05T01:50:09;7.07;;;3.83;;
20814;SDS011;10568;48.176;16.316;2022-12-05T01:52:37;7.13;;;4.80;;
20814;SDS011;10568;48.176;16.316;2022-12-05T01:55:05;7.63;;;4.23;;
20814;SDS011;10568;48.176;16.316;2022-12-05T01:57:35;10.37;;;4.63;;
20814;SDS011;10568;48.176;16.316;2022-12-05T02:00:10;8.40;;;4.43;;
20814;SDS011;10568;48.176;16.316;2022-12-05T02:02:43;7.67;;;4.13;;
20814;SDS011;10568;48.176;16.316;2022-12-05T02:05:22;8.97;;;4.27;;
20814;SDS011;10568;48.176;16.316;2022-12-05T02:07:52;8.17;;;4.73;;
20814;SDS011;10568;48.176;16.316;2022-12-05T02:10:18;7.47;;;4.23;;
20814;SDS011;10568;48.176;16.316;2022-12-05T02:12:44;7.60;;;4.40;;
20814;SDS011;10568;48.176;16.316;2022-12-05T02:15:20;7.40;;;3.73;;
20814;SDS011;10568;48.176;16.316;2022-12-05T02:18:00;7.83;;;3.90;;
20814;SDS011;10568;48.176;16.316;2022-12-05T02:29:27;6.50;;;3.70;;
20814;SDS011;10568;48.176;16.316;2022-12-05T02:32:17;7.97;;;4.57;;
20814;SDS011;10568;48.176;16.316;2022-12-05T02:40:25;6.10;;;3.53;;
20814;SDS011;10568;48.176;16.316;2022-12-05T02:45:42;5.37;;;3.50;;
20814;SDS011;10568;48.176;16.316;2022-12-05T02:48:12;6.90;;;4.00;;
20814;SDS011;10568;48.176;16.316;2022-12-05T02:50:39;7.77;;;3.80;;
20814;SDS011;10568;48.176;16.316;2022-12-05T02:53:08;6.27;;;4.10;;
20814;SDS011;10568;48.176;16.316;2022-12-05T02:55:35;8.47;;;4.00;;
20814;SDS011;10568;48.176;16.316;2022-12-05T02:58:04;7.83;;;3.70;;
20814;SDS011;10568;48.176;16.316;2022-12-05T03:00:34;4.63;;;3.63;;
20814;SDS011;10568;48.176;16.316;2022-12-05T03:03:09;5.20;;;3.57;;
20814;SDS011;10568;48.176;16.316;2022-12-05T03:06:22;5.23;;;3.10;;
20814;SDS011;10568;48.176;16.316;2022-12-05T03:11:14;6.53;;;3.77;;
20814;SDS011;10568;48.176;16.316;2022-12-05T03:13:42;6.57;;;3.60;;
20814;SDS011;10568;48.176;16.316;2022-12-05T03:16:14;6.00;;;3.53;;
20814;SDS011;10568;48.176;16.316;2022-12-05T03:18:54;7.07;;;3.80;;
20814;SDS011;10568;48.176;16.316;2022-12-05T03:24:10;6.93;;;3.60;;
20814;SDS011;10568;48.176;16.316;2022-12-05T03:27:02;5.53;;;3.50;;
20814;SDS011;10568;48.176;16.316;2022-12-05T03:38:07;7.90;;;4.03;;
20814;SDS011;10568;48.176;16.316;2022-12-05T03:40:55;8.40;;;4.23;;
20814;SDS011;10568;48.176;16.316;2022-12-05T03:44:13;6.07;;;3.37;;
20814;SDS011;10568;48.176;16.316;2022-12-05T03:46:47;5.77;;;3.67;;
20814;SDS011;10568;48.176;16.316;2022-12-05T03:49:26;9.03;;;4.43;;
20814;SDS011;10568;48.176;16.316;2022-12-05T03:54:52;6.57;;;3.60;;
20814;SDS011;10568;48.176;16.316;2022-12-05T03:57:26;5.73;;;3.77;;
20814;SDS011;10568;48.176;16.316;2022-12-05T04:00:13;7.17;;;3.57;;
20814;SDS011;10568;48.176;16.316;2022-12-05T04:02:52;6.40;;;4.10;;
20814;SDS011;10568;48.176;16.316;2022-12-05T04:05:21;6.00;;;3.83;;
20814;SDS011;10568;48.176;16.316;2022-12-05T04:07:55;6.97;;;3.80;;
20814;SDS011;10568;48.176;16.316;2022-12-05T04:10:27;6.93;;;4.40;;
20814;SDS011;10568;48.176;16.316;2022-12-05T04:12:57;5.47;;;3.57;;
20814;SDS011;10568;48.176;16.316;2022-12-05T04:15:41;6.80;;;4.13;;
20814;SDS011;10568;48.176;16.316;2022-12-05T04:18:40;5.50;;;3.53;;
20814;SDS011;10568;48.176;16.316;2022-12-05T04:21:11;8.10;;;4.20;;
20814;SDS011;10568;48.176;16.316;2022-12-05T04:23:58;6.43;;;3.37;;
20814;SDS011;10568;48.176;16.316;2022-12-05T04:26:43;10.27;;;3.90;;
20814;SDS011;10568;48.176;16.316;2022-12-05T04:29:18;6.23;;;3.50;;
20814;SDS011;10568;48.176;16.316;2022-12-05T04:31:54;5.50;;;3.70;;
20814;SDS011;10568;48.176;16.316;2022-12-05T04:34:25;6.90;;;3.97;;
20814;SDS011;10568;48.176;16.316;2022-12-05T04:37:05;5.80;;;3.80;;
20814;SDS011;10568;48.176;16.316;2022-12-05T04:42:22;7.87;;;4.00;;
20814;SDS011;10568;48.176;16.316;2022-12-05T04:44:56;5.93;;;3.27;;
20814;SDS011;10568;48.176;16.316;2022-12-05T04:47:27;8.20;;;3.60;;
20814;SDS011;10568;48.176;16.316;2022-12-05T04:49:56;7.77;;;4.10;;
20814;SDS011;10568;48.176;16.316;2022-12-05T04:52:24;6.27;;;3.97;;
20814;SDS011;10568;48.176;16.316;2022-12-05T04:55:00;5.13;;;3.73;;
20814;SDS011;10568;48.176;16.316;2022-12-05T04:58:10;8.37;;;4.03;;
20814;SDS011;10568;48.176;16.316;2022-12-05T05:00:46;6.40;;;3.50;;
20814;SDS011;10568;48.176;16.316;2022-12-05T05:05:53;8.07;;;4.37;;
20814;SDS011;10568;48.176;16.316;2022-12-05T05:08:24;8.10;;;4.17;;
20814;SDS011;10568;48.176;16.316;2022-12-05T05:11:12;9.70;;;4.20;;
20814;SDS011;10568;48.176;16.316;2022-12-05T05:13:43;6.10;;;3.63;;
20814;SDS011;10568;48.176;16.316;2022-12-05T05:16:19;7.23;;;4.03;;
20814;SDS011;10568;48.176;16.316;2022-12-05T05:18:50;7.17;;;4.53;;
20814;SDS011;10568;48.176;16.316;2022-12-05T05:21:24;7.67;;;4.47;;
20814;SDS011;10568;48.176;16.316;2022-12-05T05:24:00;7.23;;;3.67;;
20814;SDS011;10568;48.176;16.316;2022-12-05T05:26:27;5.60;;;3.77;;
20814;SDS011;10568;48.176;16.316;2022-12-05T05:28:54;7.10;;;3.77;;
20814;SDS011;10568;48.176;16.316;2022-12-05T05:31:22;8.67;;;4.10;;
20814;SDS011;10568;48.176;16.316;2022-12-05T05:33:48;6.87;;;4.10;;
20814;SDS011;10568;48.176;16.316;2022-12-05T05:36:16;7.10;;;4.10;;
20814;SDS011;10568;48.176;16.316;2022-12-05T05:38:43;8.10;;;4.23;;
20814;SDS011;10568;48.176;16.316;2022-12-05T05:43:40;8.53;;;4.30;;
20814;SDS011;10568;48.176;16.316;2022-12-05T05:46:06;9.73;;;4.63;;
20814;SDS011;10568;48.176;16.316;2022-12-05T05:48:32;6.07;;;3.63;;
20814;SDS011;10568;48.176;16.316;2022-12-05T05:50:58;7.80;;;4.30;;
20814;SDS011;10568;48.176;16.316;2022-12-05T05:53:25;6.63;;;4.20;;
20814;SDS011;10568;48.176;16.316;2022-12-05T05:55:51;9.07;;;4.80;;
20814;SDS011;10568;48.176;16.316;2022-12-05T05:58:17;6.97;;;4.17;;
20814;SDS011;10568;48.176;16.316;2022-12-05T06:00:43;6.23;;;4.10;;
20814;SDS011;10568;48.176;16.316;2022-12-05T06:03:08;8.67;;;3.97;;
20814;SDS011;10568;48.176;16.316;2022-12-05T06:05:34;8.40;;;4.20;;
20814;SDS011;10568;48.176;16.316;2022-12-05T06:08:00;6.60;;;4.20;;
20814;SDS011;10568;48.176;16.316;2022-12-05T06:10:26;9.47;;;4.60;;
20814;SDS011;10568;48.176;16.316;2022-12-05T06:12:54;7.37;;;3.67;;
20814;SDS011;10568;48.176;16.316;2022-12-05T06:15:21;7.10;;;4.07;;
20814;SDS011;10568;48.176;16.316;2022-12-05T06:17:47;7.83;;;4.33;;
20814;SDS011;10568;48.176;16.316;2022-12-05T06:20:12;6.10;;;4.03;;
20814;SDS011;10568;48.176;16.316;2022-12-05T06:22:38;6.73;;;4.37;;
20814;SDS011;10568;48.176;16.316;2022-12-05T06:25:04;6.37;;;4.27;;
20814;SDS011;10568;48.176;16.316;2022-12-05T06:27:31;8.33;;;4.30;;
20814;SDS011;10568;48.176;16.316;2022-12-05T06:29:57;8.87;;;3.73;;
20814;SDS011;10568;48.176;16.316;2022-12-05T06:32:23;8.00;;;4.30;;
20814;SDS011;10568;48.176;16.316;2022-12-05T06:34:48;9.93;;;4.67;;
20814;SDS011;10568;48.176;16.316;2022-12-05T06:37:14;8.90;;;4.60;;
20814;SDS011;10568;48.176;16.316;2022-12-05T06:39:40;7.43;;;4.50;;
20814;SDS011;10568;48.176;16.316;2022-12-05T06:42:06;8.53;;;4.30;;
20814;SDS011;10568;48.176;16.316;2022-12-05T06:44:32;7.53;;;4.50;;
20814;SDS011;10568;48.176;16.316;2022-12-05T06:46:58;8.33;;;4.30;;
20814;SDS011;10568;48.176;16.316;2022-12-05T06:49:23;8.00;;;4.03;;
20814;SDS011;10568;48.176;16.316;2022-12-05T06:51:52;7.90;;;4.53;;
20814;SDS011;10568;48.176;16.316;2022-12-05T06:54:18;9.00;;;4.40;;
20814;SDS011;10568;48.176;16.316;2022-12-05T06:56:43;10.93;;;5.13;;
20814;SDS011;10568;48.176;16.316;2022-12-05T06:59:09;9.43;;;4.60;;
20814;SDS011;10568;48.176;16.316;2022-12-05T07:01:35;10.03;;;4.70;;
20814;SDS011;10568;48.176;16.316;2022-12-05T07:04:11;8.17;;;4.27;;
20814;SDS011;10568;48.176;16.316;2022-12-05T07:06:42;9.03;;;5.03;;
20814;SDS011;10568;48.176;16.316;2022-12-05T07:09:10;9.17;;;4.67;;
20814;SDS011;10568;48.176;16.316;2022-12-05T07:11:36;10.20;;;5.03;;
20814;SDS011;10568;48.176;16.316;2022-12-05T07:14:03;10.40;;;5.33;;
20814;SDS011;10568;48.176;16.316;2022-12-05T07:16:29;13.67;;;5.60;;
20814;SDS011;10568;48.176;16.316;2022-12-05T07:18:56;9.40;;;4.90;;
20814;SDS011;10568;48.176;16.316;2022-12-05T07:21:25;10.07;;;4.87;;
20814;SDS011;10568;48.176;16.316;2022-12-05T07:23:50;9.63;;;5.07;;
20814;SDS011;10568;48.176;16.316;2022-12-05T07:26:17;11.07;;;5.20;;
20814;SDS011;10568;48.176;16.316;2022-12-05T07:28:45;9.17;;;4.53;;
20814;SDS011;10568;48.176;16.316;2022-12-05T07:31:12;8.67;;;4.53;;
20814;SDS011;10568;48.176;16.316;2022-12-05T07:33:40;10.67;;;4.83;;
20814;SDS011;10568;48.176;16.316;2022-12-05T07:36:08;11.40;;;5.27;;
20814;SDS011;10568;48.176;16.316;2022-12-05T07:38:38;11.93;;;4.63;;
20814;SDS011;10568;48.176;16.316;2022-12-05T07:41:09;7.97;;;4.70;;
20814;SDS011;10568;48.176;16.316;2022-12-05T07:43:47;12.63;;;5.73;;
20814;SDS011;10568;48.176;16.316;2022-12-05T07:46:14;13.73;;;5.63;;
20814;SDS011;10568;48.176;16.316;2022-12-05T07:48:41;10.73;;;5.40;;
20814;SDS011;10568;48.176;16.316;2022-12-05T07:51:08;10.67;;;5.73;;
20814;SDS011;10568;48.176;16.316;2022-12-05T07:53:35;13.10;;;5.30;;
20814;SDS011;10568;48.176;16.316;2022-12-05T07:56:02;11.73;;;5.93;;
20814;SDS011;10568;48.176;16.316;2022-12-05T07:58:30;10.10;;;4.67;;
20814;SDS011;10568;48.176;16.316;2022-12-05T08:00:56;11.50;;;5.37;;
20814;SDS011;10568;48.176;16.316;2022-12-05T08:03:29;11.37;;;5.63;;
20814;SDS011;10568;48.176;16.316;2022-12-05T08:05:55;14.03;;;6.20;;
20814;SDS011;10568;48.176;16.316;2022-12-05T08:08:26;11.33;;;5.70;;
20814;SDS011;10568;48.176;16.316;2022-12-05T08:10:52;12.93;;;6.07;;
20814;SDS011;10568;48.176;16.316;2022-12-05T08:13:17;13.50;;;6.77;;
20814;SDS011;10568;48.176;16.316;2022-12-05T08:15:43;17.50;;;5.77;;
20814;SDS011;10568;48.176;16.316;2022-12-05T08:18:09;14.37;;;6.93;;
20814;SDS011;10568;48.176;16.316;2022-12-05T08:20:34;15.07;;;5.27;;
20814;SDS011;10568;48.176;16.316;2022-12-05T08:23:00;13.90;;;5.40;;
20814;SDS011;10568;48.176;16.316;2022-12-05T08:25:26;14.97;;;6.17;;
20814;SDS011;10568;48.176;16.316;2022-12-05T08:27:52;13.13;;;6.57;;
20814;SDS011;10568;48.176;16.316;2022-12-05T08:30:17;12.73;;;6.20;;
20814;SDS011;10568;48.176;16.316;2022-12-05T08:32:43;11.90;;;6.03;;
20814;SDS011;10568;48.176;16.316;2022-12-05T08:35:09;13.97;;;5.40;;
20814;SDS011;10568;48.176;16.316;2022-12-05T08:37:35;10.70;;;5.43;;
20814;SDS011;10568;48.176;16.316;2022-12-05T08:40:01;14.93;;;5.60;;
20814;SDS011;10568;48.176;16.316;2022-12-05T08:42:28;13.27;;;6.13;;
20814;SDS011;10568;48.176;16.316;2022-12-05T08:44:54;17.03;;;6.47;;
20814;SDS011;10568;48.176;16.316;2022-12-05T08:47:20;12.57;;;6.43;;
20814;SDS011;10568;48.176;16.316;2022-12-05T08:49:46;15.67;;;6.27;;
20814;SDS011;10568;48.176;16.316;2022-12-05T08:52:12;14.07;;;5.80;;
20814;SDS011;10568;48.176;16.316;2022-12-05T08:54:37;12.87;;;6.23;;
20814;SDS011;10568;48.176;16.316;2022-12-05T08:57:03;14.27;;;6.33;;
20814;SDS011;10568;48.176;16.316;2022-12-05T08:59:29;16.87;;;7.07;;
20814;SDS011;10568;48.176;16.316;2022-12-05T09:01:55;11.27;;;5.27;;
20814;SDS011;10568;48.176;16.316;2022-12-05T09:04:20;16.40;;;7.00;;
20814;SDS011;10568;48.176;16.316;2022-12-05T09:06:46;13.90;;;6.80;;
20814;SDS011;10568;48.176;16.316;2022-12-05T09:09:12;13.33;;;5.43;;
20814;SDS011;10568;48.176;16.316;2022-12-05T09:11:39;13.50;;;6.57;;
20814;SDS011;10568;48.176;16.316;2022-12-05T09:14:10;14.80;;;6.50;;
20814;SDS011;10568;48.176;16.316;2022-12-05T09:16:37;11.07;;;6.03;;
20814;SDS011;10568;48.176;16.316;2022-12-05T09:19:03;13.30;;;6.30;;
20814;SDS011;10568;48.176;16.316;2022-12-05T09:21:31;13.23;;;5.87;;
20814;SDS011;10568;48.176;16.316;2022-12-05T09:23:57;13.40;;;6.17;;
20814;SDS011;10568;48.176;16.316;2022-12-05T09:26:24;13.77;;;6.30;;
20814;SDS011;10568;48.176;16.316;2022-12-05T09:28:51;14.30;;;7.10;;
20814;SDS011;10568;48.176;16.316;2022-12-05T09:31:18;11.00;;;5.23;;
20814;SDS011;10568;48.176;16.316;2022-12-05T09:33:48;11.33;;;6.20;;
20814;SDS011;10568;48.176;16.316;2022-12-05T09:36:16;15.80;;;6.73;;
20814;SDS011;10568;48.176;16.316;2022-12-05T09:38:47;13.23;;;6.07;;
20814;SDS011;10568;48.176;16.316;2022-12-05T09:50:14;13.60;;;6.50;;
20814;SDS011;10568;48.176;16.316;2022-12-05T09:52:40;15.20;;;6.17;;
20814;SDS011;10568;48.176;16.316;2022-12-05T09:55:16;11.47;;;6.87;;
20814;SDS011;10568;48.176;16.316;2022-12-05T09:57:51;15.03;;;6.30;;
20814;SDS011;10568;48.176;16.316;2022-12-05T10:00:20;12.43;;;5.80;;
20814;SDS011;10568;48.176;16.316;2022-12-05T10:08:14;10.80;;;5.77;;
20814;SDS011;10568;48.176;16.316;2022-12-05T10:11:13;12.53;;;5.60;;
20814;SDS011;10568;48.176;16.316;2022-12-05T10:16:30;16.73;;;6.30;;
20814;SDS011;10568;48.176;16.316;2022-12-05T10:19:02;11.80;;;5.67;;
20814;SDS011;10568;48.176;16.316;2022-12-05T10:21:46;12.10;;;6.10;;
20814;SDS011;10568;48.176;16.316;2022-12-05T10:24:31;11.73;;;5.70;;
20814;SDS011;10568;48.176;16.316;2022-12-05T10:27:14;12.73;;;6.23;;
20814;SDS011;10568;48.176;16.316;2022-12-05T10:29:47;13.57;;;6.53;;
20814;SDS011;10568;48.176;16.316;2022-12-05T10:32:23;12.47;;;5.70;;
20814;SDS011;10568;48.176;16.316;2022-12-05T10:34:59;10.73;;;5.57;;
20814;SDS011;10568;48.176;16.316;2022-12-05T10:37:39;13.27;;;5.80;;
20814;SDS011;10568;48.176;16.316;2022-12-05T10:40:17;15.30;;;5.80;;
20814;SDS011;10568;48.176;16.316;2022-12-05T10:42:43;10.77;;;5.53;;
20814;SDS011;10568;48.176;16.316;2022-12-05T10:45:21;13.40;;;6.40;;
20814;SDS011;10568;48.176;16.316;2022-12-05T10:47:48;12.63;;;5.40;;
20814;SDS011;10568;48.176;16.316;2022-12-05T10:52:49;9.43;;;5.07;;
20814;SDS011;10568;48.176;16.316;2022-12-05T10:55:16;12.13;;;5.53;;
20814;SDS011;10568;48.176;16.316;2022-12-05T10:57:46;12.33;;;6.07;;
20814;SDS011;10568;48.176;16.316;2022-12-05T11:00:15;10.77;;;5.53;;
20814;SDS011;10568;48.176;16.316;2022-12-05T11:02:47;15.90;;;6.57;;
20814;SDS011;10568;48.176;16.316;2022-12-05T11:05:13;9.73;;;5.50;;
20814;SDS011;10568;48.176;16.316;2022-12-05T11:07:47;13.00;;;6.17;;
20814;SDS011;10568;48.176;16.316;2022-12-05T11:10:20;12.10;;;5.33;;
20814;SDS011;10568;48.176;16.316;2022-12-05T11:12:53;14.90;;;6.00;;
20814;SDS011;10568;48.176;16.316;2022-12-05T11:15:22;14.40;;;6.73;;
20814;SDS011;10568;48.176;16.316;2022-12-05T11:17:51;10.83;;;5.70;;
20814;SDS011;10568;48.176;16.316;2022-12-05T11:22:54;14.43;;;6.60;;
20814;SDS011;10568;48.176;16.316;2022-12-05T11:28:37;14.53;;;6.40;;
20814;SDS011;10568;48.176;16.316;2022-12-05T11:31:01;13.70;;;5.67;;
20814;SDS011;10568;48.176;16.316;2022-12-05T11:33:39;10.87;;;5.70;;
20814;SDS011;10568;48.176;16.316;2022-12-05T11:38:34;13.33;;;6.37;;
20814;SDS011;10568;48.176;16.316;2022-12-05T11:41:10;13.70;;;6.33;;
20814;SDS011;10568;48.176;16.316;2022-12-05T11:55:53;13.03;;;5.70;;
20814;SDS011;10568;48.176;16.316;2022-12-05T12:01:43;13.27;;;5.93;;
20814;SDS011;10568;48.176;16.316;2022-12-05T12:04:54;10.93;;;5.93;;
20814;SDS011;10568;48.176;16.316;2022-12-05T12:07:35;9.67;;;5.03;;
20814;SDS011;10568;48.176;16.316;2022-12-05T12:15:37;12.03;;;6.00;;
20814;SDS011;10568;48.176;16.316;2022-12-05T12:21:26;10.57;;;5.43;;
20814;SDS011;10568;48.176;16.316;2022-12-05T12:27:13;11.57;;;5.20;;
20814;SDS011;10568;48.176;16.316;2022-12-05T12:32:38;14.07;;;6.50;;
20814;SDS011;10568;48.176;16.316;2022-12-05T12:35:26;11.80;;;5.43;;
20814;SDS011;10568;48.176;16.316;2022-12-05T12:46:31;13.33;;;6.10;;
20814;SDS011;10568;48.176;16.316;2022-12-05T12:52:00;12.17;;;5.97;;
20814;SDS011;10568;48.176;16.316;2022-12-05T12:54:38;14.47;;;7.10;;
20814;SDS011;10568;48.176;16.316;2022-12-05T12:57:31;12.77;;;5.77;;
20814;SDS011;10568;48.176;16.316;2022-12-05T13:03:12;14.50;;;6.47;;
20814;SDS011;10568;48.176;16.316;2022-12-05T13:05:54;13.27;;;5.97;;
20814;SDS011;10568;48.176;16.316;2022-12-05T13:08:31;13.67;;;6.03;;
20814;SDS011;10568;48.176;16.316;2022-12-05T13:11:09;16.97;;;6.90;;
20814;SDS011;10568;48.176;16.316;2022-12-05T13:13:42;12.73;;;6.23;;
20814;SDS011;10568;48.176;16.316;2022-12-05T13:16:24;12.73;;;6.63;;
20814;SDS011;10568;48.176;16.316;2022-12-05T13:18:54;17.30;;;6.90;;
20814;SDS011;10568;48.176;16.316;2022-12-05T13:21:21;16.37;;;7.20;;
20814;SDS011;10568;48.176;16.316;2022-12-05T13:23:49;13.17;;;5.87;;
20814;SDS011;10568;48.176;16.316;2022-12-05T13:26:18;14.43;;;6.63;;
20814;SDS011;10568;48.176;16.316;2022-12-05T13:28:52;17.17;;;6.70;;
20814;SDS011;10568;48.176;16.316;2022-12-05T13:31:43;17.03;;;7.63;;
20814;SDS011;10568;48.176;16.316;2022-12-05T13:36:54;13.90;;;5.87;;
20814;SDS011;10568;48.176;16.316;2022-12-05T13:39:41;14.80;;;7.20;;
20814;SDS011;10568;48.176;16.316;2022-12-05T13:42:32;18.80;;;6.43;;
20814;SDS011;10568;48.176;16.316;2022-12-05T13:53:42;18.00;;;7.03;;
20814;SDS011;10568;48.176;16.316;2022-12-05T13:58:42;16.67;;;8.20;;
20814;SDS011;10568;48.176;16.316;2022-12-05T14:17:26;16.73;;;7.77;;
20814;SDS011;10568;48.176;16.316;2022-12-05T14:22:48;12.57;;;6.03;;
20814;SDS011;10568;48.176;16.316;2022-12-05T14:33:41;18.87;;;7.07;;
20814;SDS011;10568;48.176;16.316;2022-12-05T14:36:12;13.83;;;6.57;;
20814;SDS011;10568;48.176;16.316;2022-12-05T14:38:41;12.00;;;5.83;;
20814;SDS011;10568;48.176;16.316;2022-12-05T14:43:36;16.60;;;6.53;;
20814;SDS011;10568;48.176;16.316;2022-12-05T14:46:15;10.27;;;5.60;;
20814;SDS011;10568;48.176;16.316;2022-12-05T14:48:47;10.73;;;5.40;;
20814;SDS011;10568;48.176;16.316;2022-12-05T14:56:38;10.47;;;5.60;;
20814;SDS011;10568;48.176;16.316;2022-12-05T14:59:19;9.33;;;5.57;;
20814;SDS011;10568;48.176;16.316;2022-12-05T15:01:51;8.60;;;4.70;;
20814;SDS011;10568;48.176;16.316;2022-12-05T15:04:28;9.53;;;4.93;;
20814;SDS011;10568;48.176;16.316;2022-12-05T15:07:11;10.47;;;5.50;;
20814;SDS011;10568;48.176;16.316;2022-12-05T15:12:27;7.60;;;3.93;;
20814;SDS011;10568;48.176;16.316;2022-12-05T15:15:12;10.67;;;3.87;;
20814;SDS011;10568;48.176;16.316;2022-12-05T15:17:58;6.70;;;3.27;;
20814;SDS011;10568;48.176;16.316;2022-12-05T15:20:36;8.53;;;4.30;;
20814;SDS011;10568;48.176;16.316;2022-12-05T15:26:25;6.43;;;3.47;;
20814;SDS011;10568;48.176;16.316;2022-12-05T15:39:49;7.50;;;3.53;;
20814;SDS011;10568;48.176;16.316;2022-12-05T15:42:24;5.50;;;3.60;;
20814;SDS011;10568;48.176;16.316;2022-12-05T15:44:53;7.53;;;3.73;;
20814;SDS011;10568;48.176;16.316;2022-12-05T15:53:59;6.37;;;3.73;;
20814;SDS011;10568;48.176;16.316;2022-12-05T15:56:37;7.43;;;3.90;;
20814;SDS011;10568;48.176;16.316;2022-12-05T15:59:16;7.03;;;3.57;;
20814;SDS011;10568;48.176;16.316;2022-12-05T16:01:46;7.47;;;3.90;;
20814;SDS011;10568;48.176;16.316;2022-12-05T16:04:21;6.03;;;3.63;;
20814;SDS011;10568;48.176;16.316;2022-12-05T16:06:53;7.40;;;3.93;;
20814;SDS011;10568;48.176;16.316;2022-12-05T16:09:23;7.70;;;3.90;;
20814;SDS011;10568;48.176;16.316;2022-12-05T16:11:56;9.40;;;4.03;;
20814;SDS011;10568;48.176;16.316;2022-12-05T16:14:28;7.03;;;4.07;;
20814;SDS011;10568;48.176;16.316;2022-12-05T16:16:58;5.93;;;3.43;;
20814;SDS011;10568;48.176;16.316;2022-12-05T16:19:25;6.33;;;3.50;;
20814;SDS011;10568;48.176;16.316;2022-12-05T16:24:55;5.93;;;3.27;;
20814;SDS011;10568;48.176;16.316;2022-12-05T16:27:30;8.13;;;3.57;;
20814;SDS011;10568;48.176;16.316;2022-12-05T16:32:40;5.40;;;3.53;;
20814;SDS011;10568;48.176;16.316;2022-12-05T16:38:05;7.10;;;3.73;;
20814;SDS011;10568;48.176;16.316;2022-12-05T16:40:38;7.17;;;3.63;;
20814;SDS011;10568;48.176;16.316;2022-12-05T16:45:55;7.03;;;3.57;;
20814;SDS011;10568;48.176;16.316;2022-12-05T16:48:32;6.00;;;3.47;;
20814;SDS011;10568;48.176;16.316;2022-12-05T16:53:42;5.80;;;4.00;;
20814;SDS011;10568;48.176;16.316;2022-12-05T16:56:31;5.83;;;3.53;;
20814;SDS011;10568;48.176;16.316;2022-12-05T16:58:57;6.33;;;3.67;;
20814;SDS011;10568;48.176;16.316;2022-12-05T17:01:28;6.13;;;3.80;;
20814;SDS011;10568;48.176;16.316;2022-12-05T17:03:54;5.87;;;3.83;;
20814;SDS011;10568;48.176;16.316;2022-12-05T17:06:22;6.93;;;3.50;;
20814;SDS011;10568;48.176;16.316;2022-12-05T17:08:52;6.07;;;3.63;;
20814;SDS011;10568;48.176;16.316;2022-12-05T17:11:20;7.77;;;4.37;;
20814;SDS011;10568;48.176;16.316;2022-12-05T17:13:51;5.57;;;3.20;;
20814;SDS011;10568;48.176;16.316;2022-12-05T17:16:18;5.80;;;3.83;;
20814;SDS011;10568;48.176;16.316;2022-12-05T17:18:45;5.73;;;3.50;;
20814;SDS011;10568;48.176;16.316;2022-12-05T17:21:14;5.60;;;3.63;;
20814;SDS011;10568;48.176;16.316;2022-12-05T17:23:43;6.93;;;3.83;;
20814;SDS011;10568;48.176;16.316;2022-12-05T17:26:14;5.13;;;3.13;;
20814;SDS011;10568;48.176;16.316;2022-12-05T17:28:42;7.20;;;3.50;;
20814;SDS011;10568;48.176;16.316;2022-12-05T17:31:08;6.70;;;3.60;;
20814;SDS011;10568;48.176;16.316;2022-12-05T17:33:40;5.37;;;3.50;;
20814;SDS011;10568;48.176;16.316;2022-12-05T17:36:07;6.73;;;4.43;;
20814;SDS011;10568;48.176;16.316;2022-12-05T17:38:33;7.87;;;4.07;;
20814;SDS011;10568;48.176;16.316;2022-12-05T17:40:59;7.80;;;4.30;;
20814;SDS011;10568;48.176;16.316;2022-12-05T17:43:25;6.23;;;3.67;;
20814;SDS011;10568;48.176;16.316;2022-12-05T17:45:51;6.93;;;4.07;;
20814;SDS011;10568;48.176;16.316;2022-12-05T17:48:18;8.03;;;4.47;;
20814;SDS011;10568;48.176;16.316;2022-12-05T17:50:46;7.23;;;3.90;;
20814;SDS011;10568;48.176;16.316;2022-12-05T17:53:16;7.10;;;3.93;;
20814;SDS011;10568;48.176;16.316;2022-12-05T17:55:43;5.40;;;3.40;;
20814;SDS011;10568;48.176;16.316;2022-12-05T17:58:12;6.83;;;4.13;;
20814;SDS011;10568;48.176;16.316;2022-12-05T18:00:40;7.57;;;3.80;;
20814;SDS011;10568;48.176;16.316;2022-12-05T18:03:10;5.30;;;3.53;;
20814;SDS011;10568;48.176;16.316;2022-12-05T18:05:38;6.13;;;3.60;;
20814;SDS011;10568;48.176;16.316;2022-12-05T18:08:04;7.80;;;3.67;;
20814;SDS011;10568;48.176;16.316;2022-12-05T18:10:30;5.70;;;3.10;;
20814;SDS011;10568;48.176;16.316;2022-12-05T18:12:56;7.83;;;4.37;;